Time;durP1;ratioP1;P1;durP2;ratioP2;P2;SDS_P1;SDS_P2;PMS_P1;PMS_P2;Temp;Humidity;BMP_temperature;BMP_pressure;BME280_temperature;BME280_humidity;BME280_pressure;Samples;Min_cycle;Max_cycle;Signal;HPM_P1;HPM_P2
2021/11/14 00:01:00;;;;;;;4.90;3.83;;;8.30;99.70;;;;;;5075345;28;20202;-92
2021/11/14 00:03:28;;;;;;;5.70;4.10;;;8.20;99.80;;;;;;5080947;28;20319;-91
2021/11/14 00:06:16;;;;;;;6.32;4.38;;;8.20;99.90;;;;;;5089186;28;20205;-92
2021/11/14 00:08:44;;;;;;;5.20;4.22;;;8.50;99.90;;;;;;5081011;28;20293;-91
2021/11/14 00:16:36;;;;;;;6.53;4.40;;;8.20;99.80;;;;;;5076360;28;20227;-91
2021/11/14 00:19:04;;;;;;;3.67;3.38;;;8.20;99.90;;;;;;5077362;28;20320;-92
2021/11/14 00:24:23;;;;;;;5.30;3.90;;;8.20;99.90;;;;;;5034889;28;20209;-92
2021/11/14 00:27:10;;;;;;;4.13;3.55;;;8.10;99.90;;;;;;5071334;28;20235;-91
2021/11/14 00:29:38;;;;;;;4.18;3.78;;;8.10;99.90;;;;;;5074195;28;20662;-92
2021/11/14 00:32:06;;;;;;;8.88;4.93;;;8.00;99.90;;;;;;5075994;28;20312;-92
2021/11/14 00:34:34;;;;;;;6.65;4.35;;;8.30;99.90;;;;;;5072229;28;20209;-92
2021/11/14 00:39:42;;;;;;;4.40;3.90;;;8.30;99.80;;;;;;5082715;28;20647;-92
2021/11/14 00:42:09;;;;;;;5.47;4.38;;;8.20;99.80;;;;;;5087964;28;20232;-92
2021/11/14 00:44:38;;;;;;;4.50;3.90;;;8.20;99.90;;;;;;5091380;28;20209;-92
2021/11/14 00:47:25;;;;;;;6.03;4.50;;;8.20;99.90;;;;;;5080013;28;20236;-93
2021/11/14 00:49:51;;;;;;;7.18;4.95;;;8.50;99.90;;;;;;5083762;28;20201;-91
2021/11/14 00:52:19;;;;;;;5.97;3.85;;;8.60;99.70;;;;;;5080361;28;20593;-92
2021/11/14 00:54:46;;;;;;;4.43;3.70;;;8.70;99.00;;;;;;5083001;28;20273;-94
2021/11/14 00:57:12;;;;;;;5.32;3.92;;;8.70;98.60;;;;;;5077368;28;20225;-91
2021/11/14 00:59:41;;;;;;;6.80;4.38;;;8.50;98.70;;;;;;5084234;28;20279;-92
2021/11/14 01:02:08;;;;;;;6.20;4.53;;;8.50;99.10;;;;;;5082382;28;20307;-92
2021/11/14 01:04:35;;;;;;;5.95;4.40;;;8.40;99.50;;;;;;5077486;28;20204;-91
2021/11/14 01:07:01;;;;;;;5.32;4.20;;;8.60;99.80;;;;;;5082612;28;20225;-91
2021/11/14 01:09:28;;;;;;;4.40;3.80;;;8.80;99.00;;;;;;5078229;28;20211;-91
2021/11/14 01:11:56;;;;;;;8.85;5.15;;;8.70;98.80;;;;;;5078648;28;20574;-91
2021/11/14 01:14:23;;;;;;;5.22;4.40;;;8.80;99.30;;;;;;5089156;28;20265;-92
2021/11/14 01:16:51;;;;;;;7.05;4.82;;;8.90;98.80;;;;;;5079857;28;20221;-92
2021/11/14 01:19:18;;;;;;;10.40;4.60;;;9.00;98.40;;;;;;5077133;28;20288;-92
2021/11/14 01:24:26;;;;;;;5.55;4.28;;;8.60;98.40;;;;;;5073891;28;20227;-92
2021/11/14 01:26:53;;;;;;;6.00;4.72;;;8.50;98.80;;;;;;5075332;28;20204;-92
2021/11/14 01:29:21;;;;;;;4.95;4.40;;;8.70;99.70;;;;;;5076680;28;20338;-92
2021/11/14 01:31:48;;;;;;;5.38;4.20;;;8.70;98.90;;;;;;5080225;28;20201;-92
2021/11/14 01:34:16;;;;;;;5.75;4.15;;;8.60;98.70;;;;;;5076842;28;20572;-92
2021/11/14 01:36:43;;;;;;;5.93;4.93;;;8.50;98.90;;;;;;5087689;28;20224;-92
2021/11/14 01:39:10;;;;;;;4.63;4.15;;;8.50;99.30;;;;;;5088605;28;20207;-92
2021/11/14 01:41:43;;;;;;;6.18;4.50;;;8.50;99.70;;;;;;5089270;28;20217;-92
2021/11/14 01:44:30;;;;;;;5.47;4.45;;;8.60;99.80;;;;;;5078135;28;20229;-92
2021/11/14 01:46:57;;;;;;;6.28;4.70;;;8.60;99.30;;;;;;5074812;28;20315;-92
2021/11/14 01:49:25;;;;;;;5.65;4.95;;;8.60;99.40;;;;;;5085550;28;20204;-92
2021/11/14 01:51:53;;;;;;;7.30;5.22;;;8.60;99.60;;;;;;5089592;28;20200;-92
2021/11/14 01:54:22;;;;;;;5.88;4.70;;;8.60;99.60;;;;;;5084582;28;21395;-92
2021/11/14 01:56:49;;;;;;;6.82;5.47;;;8.50;99.40;;;;;;5079031;28;20220;-92
2021/11/14 01:59:17;;;;;;;5.88;4.75;;;8.40;99.50;;;;;;5084246;28;20209;-92
2021/11/14 02:07:30;;;;;;;8.02;5.28;;;8.50;99.70;;;;;;5079655;28;20224;-92
2021/11/14 02:09:57;;;;;;;5.45;4.72;;;8.80;99.70;;;;;;5090256;28;20205;-92
2021/11/14 02:12:24;;;;;;;5.13;4.63;;;8.90;99.00;;;;;;5080316;28;20237;-92
2021/11/14 02:14:51;;;;;;;9.02;4.90;;;8.90;98.70;;;;;;5082007;28;20201;-92
2021/11/14 02:17:18;;;;;;;8.10;5.13;;;8.90;99.10;;;;;;5081107;28;20234;-92
2021/11/14 02:19:52;;;;;;;8.10;5.35;;;9.10;98.90;;;;;;5079705;28;20209;-92
2021/11/14 02:22:21;;;;;;;5.68;5.05;;;9.10;98.50;;;;;;5087194;28;20227;-92
2021/11/14 02:24:48;;;;;;;6.68;5.10;;;9.10;98.20;;;;;;5073915;28;20202;-92
2021/11/14 02:27:16;;;;;;;5.40;4.82;;;9.10;98.40;;;;;;5077689;28;20233;-92
2021/11/14 02:29:43;;;;;;;6.75;5.00;;;9.20;98.30;;;;;;5089058;28;20205;-92
2021/11/14 02:32:11;;;;;;;6.82;4.95;;;9.30;97.90;;;;;;5079108;28;20239;-91
2021/11/14 02:34:39;;;;;;;6.95;5.45;;;9.20;97.50;;;;;;5078082;28;20205;-91
2021/11/14 02:37:08;;;;;;;6.97;5.47;;;8.90;97.40;;;;;;5082576;28;20232;-91
2021/11/14 02:39:35;;;;;;;6.15;5.30;;;8.80;97.90;;;;;;5083645;28;20208;-92
2021/11/14 02:42:02;;;;;;;5.85;5.25;;;8.70;98.80;;;;;;5092446;28;20271;-92
2021/11/14 02:44:29;;;;;;;7.93;5.30;;;8.70;99.00;;;;;;5080627;28;20207;-91
2021/11/14 02:46:57;;;;;;;7.43;5.32;;;8.90;99.20;;;;;;5068618;28;20235;-92
2021/11/14 02:49:24;;;;;;;6.10;5.20;;;9.10;99.10;;;;;;5081955;28;20197;-91
2021/11/14 02:54:35;;;;;;;6.40;5.60;;;9.10;98.10;;;;;;5082546;28;20196;-92
2021/11/14 02:57:01;;;;;;;8.32;6.32;;;9.10;98.50;;;;;;5093815;28;20224;-91
2021/11/14 02:59:28;;;;;;;10.13;6.93;;;8.80;97.90;;;;;;5080519;28;20201;-91
2021/11/14 03:01:55;;;;;;;10.05;7.55;;;8.60;98.20;;;;;;5080972;28;20207;-91
2021/11/14 03:04:26;;;;;;;20.75;16.05;;;8.40;98.80;;;;;;5085654;28;20209;-91
2021/11/14 03:06:54;;;;;;;12.00;9.88;;;8.40;99.80;;;;;;5078235;28;20208;-91
2021/11/14 03:09:50;;;;;;;12.27;9.55;;;8.40;99.70;;;;;;5087929;28;20204;-91
2021/11/14 03:12:17;;;;;;;46.45;30.45;;;8.50;99.80;;;;;;5097777;28;20220;-91
2021/11/14 03:14:44;;;;;;;36.05;25.63;;;8.70;99.90;;;;;;5075991;28;20204;-91
2021/11/14 03:17:11;;;;;;;11.23;8.77;;;8.70;99.90;;;;;;5083239;28;20228;-91
2021/11/14 03:19:38;;;;;;;12.38;8.48;;;8.60;99.40;;;;;;5084948;28;20284;-92
2021/11/14 03:22:05;;;;;;;12.45;9.90;;;8.60;99.40;;;;;;5076259;28;20255;-91
2021/11/14 03:24:32;;;;;;;29.90;23.55;;;8.50;99.50;;;;;;5087784;28;20197;-91
2021/11/14 03:27:01;;;;;;;19.63;15.43;;;8.80;99.90;;;;;;5073291;28;20604;-91
2021/11/14 03:29:27;;;;;;;16.50;12.60;;;8.90;99.60;;;;;;5080116;28;20291;-91
2021/11/14 03:34:35;;;;;;;17.67;14.05;;;8.90;98.60;;;;;;5096570;28;20288;-91
2021/11/14 03:37:12;;;;;;;10.30;9.00;;;9.00;98.50;;;;;;5081841;28;20311;-91
2021/11/14 03:39:38;;;;;;;10.35;8.23;;;8.90;98.20;;;;;;5088969;28;20201;-91
2021/11/14 03:42:07;;;;;;;9.60;8.60;;;8.80;98.30;;;;;;5076601;28;20236;-91
2021/11/14 03:44:54;;;;;;;10.82;9.45;;;8.60;98.40;;;;;;5085959;28;20196;-92
2021/11/14 03:47:21;;;;;;;18.83;14.88;;;8.50;99.00;;;;;;5088983;28;20242;-92
2021/11/14 03:49:48;;;;;;;14.20;11.48;;;8.70;99.90;;;;;;5089311;28;20212;-91
2021/11/14 03:52:15;;;;;;;10.90;8.73;;;8.80;99.40;;;;;;5081877;28;20231;-91
2021/11/14 03:54:42;;;;;;;11.00;9.15;;;8.80;99.00;;;;;;5085999;28;20205;-91
2021/11/14 03:57:11;;;;;;;12.30;9.63;;;8.60;99.00;;;;;;5075821;28;20265;-91
2021/11/14 03:59:58;;;;;;;12.35;9.73;;;8.60;99.40;;;;;;5088946;28;20609;-91
2021/11/14 04:02:25;;;;;;;11.80;9.13;;;8.50;99.60;;;;;;5094218;28;20228;-91
2021/11/14 04:04:52;;;;;;;16.73;11.98;;;8.40;99.40;;;;;;5078923;28;20205;-92
2021/11/14 04:07:19;;;;;;;17.63;12.15;;;8.60;99.90;;;;;;5092714;28;20204;-92
2021/11/14 04:09:46;;;;;;;10.90;9.02;;;8.80;99.50;;;;;;5088946;28;20196;-91
2021/11/14 04:14:55;;;;;;;10.77;8.73;;;8.60;98.40;;;;;;5085663;28;20616;-90
2021/11/14 04:17:22;;;;;;;9.75;8.18;;;8.50;98.80;;;;;;5075081;28;20316;-92
2021/11/14 04:19:48;;;;;;;10.50;9.10;;;8.40;99.00;;;;;;5088885;28;20293;-91
2021/11/14 04:22:16;;;;;;;12.02;9.23;;;8.30;99.30;;;;;;5091115;28;20234;-91
2021/11/14 04:25:05;;;;;;;12.40;9.63;;;8.20;99.60;;;;;;5077335;28;20250;-91
2021/11/14 04:30:14;;;;;;;9.98;8.68;;;8.10;99.90;;;;;;5074594;28;20196;-92
2021/11/14 04:32:41;;;;;;;12.98;9.57;;;8.10;99.90;;;;;;5083487;28;20228;-91
2021/11/14 04:35:09;;;;;;;13.15;9.32;;;8.00;99.90;;;;;;5083120;28;20192;-91
2021/11/14 04:37:36;;;;;;;10.80;8.93;;;8.00;99.90;;;;;;5067799;28;20239;-91
2021/11/14 04:40:05;;;;;;;15.65;9.80;;;8.10;99.90;;;;;;5086949;28;20291;-91
2021/11/14 04:45:52;;;;;;;12.15;9.82;;;8.40;99.90;;;;;;5088891;28;20281;-91
2021/11/14 04:48:19;;;;;;;12.93;9.50;;;8.50;99.70;;;;;;5079961;28;20651;-91
2021/11/14 04:50:47;;;;;;;14.23;11.02;;;8.40;99.40;;;;;;5069394;28;20209;-92
2021/11/14 04:53:24;;;;;;;13.63;10.40;;;8.30;99.50;;;;;;5075798;28;20216;-91
2021/11/14 04:56:11;;;;;;;15.38;11.07;;;8.20;99.70;;;;;;5085583;28;20229;-91
2021/11/14 05:01:27;;;;;;;13.13;10.50;;;8.10;99.90;;;;;;5079477;28;20204;-91
2021/11/14 05:03:54;;;;;;;16.10;10.70;;;8.30;99.90;;;;;;5080831;28;20239;-91
2021/11/14 05:06:21;;;;;;;14.13;10.38;;;8.50;99.90;;;;;;5074038;28;20284;-91
2021/11/14 05:08:51;;;;;;;12.95;10.45;;;8.40;99.50;;;;;;5075762;28;20587;-92
2021/11/14 05:11:18;;;;;;;13.57;10.50;;;8.30;99.70;;;;;;5097804;28;20211;-91
2021/11/14 05:16:28;;;;;;;15.07;10.40;;;8.70;99.50;;;;;;5082326;28;20232;-91
2021/11/14 05:18:55;;;;;;;12.38;9.90;;;8.70;98.50;;;;;;5076582;28;20235;-91
2021/11/14 05:21:21;;;;;;;12.60;10.27;;;8.50;98.40;;;;;;5084430;28;20751;-91
2021/11/14 05:23:49;;;;;;;14.77;11.25;;;8.40;98.70;;;;;;5082159;28;20226;-92
2021/11/14 05:26:16;;;;;;;13.65;10.77;;;8.30;99.20;;;;;;5090222;28;20288;-92
2021/11/14 05:28:43;;;;;;;17.33;11.45;;;8.20;99.90;;;;;;5093041;28;20694;-91
2021/11/14 05:33:52;;;;;;;14.73;11.85;;;8.10;99.90;;;;;;5082323;28;20213;-91
2021/11/14 05:39:01;;;;;;;15.27;11.30;;;8.00;99.90;;;;;;5059917;28;20205;-91
2021/11/14 05:41:28;;;;;;;15.23;11.50;;;8.10;99.90;;;;;;5089132;28;20205;-91
2021/11/14 05:43:55;;;;;;;15.75;11.38;;;8.50;99.90;;;;;;5083819;28;20226;-91
2021/11/14 05:46:24;;;;;;;12.32;10.52;;;8.70;99.90;;;;;;5084740;28;20216;-91
2021/11/14 05:48:51;;;;;;;13.02;10.60;;;8.90;99.40;;;;;;5081833;28;20584;-91
2021/11/14 05:51:18;;;;;;;16.02;12.27;;;8.80;98.50;;;;;;5088518;28;20203;-92
2021/11/14 05:53:45;;;;;;;15.68;11.93;;;8.50;98.60;;;;;;5082719;28;20243;-91
2021/11/14 05:56:11;;;;;;;14.48;12.07;;;8.40;99.40;;;;;;5082491;28;20293;-91
2021/11/14 05:58:44;;;;;;;16.55;12.38;;;8.30;99.70;;;;;;5070080;28;20230;-91
2021/11/14 06:01:13;;;;;;;18.45;12.82;;;8.30;99.90;;;;;;5081892;28;20205;-91
2021/11/14 06:06:42;;;;;;;16.73;12.93;;;8.40;99.90;;;;;;5080128;28;20284;-91
2021/11/14 06:09:09;;;;;;;17.13;12.15;;;8.40;99.90;;;;;;5090138;28;20190;-91
2021/11/14 06:14:16;;;;;;;18.90;13.02;;;8.30;99.50;;;;;;5080191;28;20217;-92
2021/11/14 06:16:43;;;;;;;20.20;14.18;;;8.20;99.90;;;;;;5082656;28;20225;-92
2021/11/14 06:22:10;;;;;;;16.63;12.98;;;8.10;99.90;;;;;;5073548;28;20220;-92
2021/11/14 06:24:37;;;;;;;20.67;12.75;;;8.00;99.90;;;;;;5080923;28;20212;-92
2021/11/14 06:27:05;;;;;;;18.98;13.02;;;8.10;99.90;;;;;;5087421;28;20225;-91
2021/11/14 06:29:32;;;;;;;17.92;12.95;;;8.00;99.90;;;;;;5090397;28;20197;-91
2021/11/14 06:31:59;;;;;;;18.17;14.27;;;7.90;99.90;;;;;;5075204;28;20201;-92
2021/11/14 06:34:27;;;;;;;18.40;14.50;;;7.90;99.90;;;;;;5081613;28;20201;-92
2021/11/14 06:37:14;;;;;;;19.30;14.20;;;7.80;99.90;;;;;;5077399;28;20313;-91
2021/11/14 06:39:41;;;;;;;20.15;14.88;;;7.80;99.90;;;;;;5094747;28;20203;-91
2021/11/14 06:42:08;;;;;;;18.65;14.43;;;7.90;99.90;;;;;;5081970;28;20314;-91
2021/11/14 06:47:17;;;;;;;16.58;14.02;;;8.00;99.90;;;;;;5090220;28;20232;-92
2021/11/14 06:49:53;;;;;;;19.55;14.25;;;8.00;99.90;;;;;;5090643;28;20284;-93
2021/11/14 06:52:20;;;;;;;18.30;14.45;;;7.90;99.90;;;;;;5093596;28;20315;-92
2021/11/14 06:54:47;;;;;;;19.13;14.90;;;7.80;99.90;;;;;;5091183;28;20280;-92
2021/11/14 06:57:14;;;;;;;17.65;14.25;;;7.80;99.90;;;;;;5081154;28;20239;-92
2021/11/14 06:59:41;;;;;;;21.05;14.98;;;7.80;99.90;;;;;;5082152;28;20212;-92
2021/11/14 07:02:08;;;;;;;17.88;14.48;;;7.70;99.90;;;;;;5093192;28;20220;-92
2021/11/14 07:04:36;;;;;;;19.00;14.88;;;7.80;99.90;;;;;;5087168;28;20244;-91
2021/11/14 07:07:09;;;;;;;19.52;14.55;;;7.80;99.90;;;;;;5091662;28;20703;-91
2021/11/14 07:09:56;;;;;;;19.77;14.88;;;7.80;99.90;;;;;;5079128;28;20201;-91
2021/11/14 07:12:24;;;;;;;21.73;15.80;;;7.70;99.90;;;;;;5079028;28;20239;-92
2021/11/14 07:15:10;;;;;;;18.55;15.00;;;7.70;99.90;;;;;;5085653;28;20201;-92
2021/11/14 07:17:40;;;;;;;17.77;14.68;;;7.80;99.90;;;;;;5074691;28;20249;-92
2021/11/14 07:20:27;;;;;;;18.08;14.55;;;7.70;99.90;;;;;;5078222;28;20211;-91
2021/11/14 07:22:56;;;;;;;17.75;13.85;;;7.70;99.90;;;;;;5084499;28;20241;-91
2021/11/14 07:28:04;;;;;;;16.27;12.85;;;7.80;99.90;;;;;;5075094;28;20236;-92
2021/11/14 07:30:32;;;;;;;15.20;12.63;;;7.70;99.90;;;;;;5079691;28;20215;-92
2021/11/14 07:33:00;;;;;;;17.10;13.57;;;7.70;99.90;;;;;;5069455;28;20239;-92
2021/11/14 07:35:27;;;;;;;14.48;12.25;;;7.70;99.90;;;;;;5077661;28;20208;-91
2021/11/14 07:38:03;;;;;;;17.65;12.80;;;7.70;99.90;;;;;;5082232;28;20229;-91
2021/11/14 07:40:50;;;;;;;16.27;12.93;;;7.80;99.90;;;;;;5080317;28;20198;-92
2021/11/14 07:43:17;;;;;;;16.55;13.52;;;7.90;99.90;;;;;;5076484;28;20217;-91
2021/11/14 07:45:44;;;;;;;16.40;13.48;;;7.80;99.90;;;;;;5082478;28;20292;-91
2021/11/14 07:48:11;;;;;;;17.67;13.85;;;7.70;99.90;;;;;;5083787;28;20254;-92
2021/11/14 07:56:05;;;;;;;18.40;14.93;;;7.70;99.90;;;;;;5077079;28;20260;-92
2021/11/14 07:58:32;;;;;;;18.25;14.38;;;7.80;99.90;;;;;;5083851;28;20239;-91
2021/11/14 08:00:58;;;;;;;17.30;14.25;;;7.90;99.90;;;;;;5089893;28;20276;-91
2021/11/14 08:06:49;;;;;;;19.42;14.73;;;7.80;99.90;;;;;;5085588;28;20211;-92
2021/11/14 08:09:18;;;;;;;18.55;14.85;;;7.90;99.90;;;;;;5073899;28;20194;-92
2021/11/14 08:11:45;;;;;;;20.92;15.82;;;7.90;99.80;;;;;;5084956;28;20225;-92
2021/11/14 08:14:54;;;;;;;19.35;15.55;;;8.00;99.70;;;;;;5091052;28;20289;-92
2021/11/14 08:17:21;;;;;;;21.90;16.75;;;8.00;99.70;;;;;;5089194;28;20249;-92
2021/11/14 08:19:48;;;;;;;20.65;16.70;;;8.00;99.70;;;;;;5084421;28;20692;-92
2021/11/14 08:22:19;;;;;;;19.85;15.38;;;8.00;99.70;;;;;;5101693;28;20232;-92
2021/11/14 08:28:33;;;;;;;20.30;17.05;;;8.20;99.30;;;;;;5060077;28;20225;-91
2021/11/14 08:31:29;;;;;;;24.02;17.88;;;8.30;98.10;;;;;;5081746;28;20211;-92
2021/11/14 08:33:56;;;;;;;23.98;17.95;;;8.20;97.90;;;;;;5083684;28;20205;-91
2021/11/14 08:36:26;;;;;;;23.05;18.13;;;8.20;98.00;;;;;;5088293;28;20233;-93
2021/11/14 08:51:43;;;;;;;25.00;19.13;;;8.50;96.40;;;;;;6099581;22;20229;-93
2021/11/14 08:54:37;;;;;;;23.42;17.58;;;8.60;95.80;;;;;;5066347;28;20308;-92
2021/11/14 09:03:59;;;;;;;26.63;18.85;;;8.70;95.50;;;;;;5816332;22;20233;-91
2021/11/14 09:06:44;;;;;;;27.00;19.05;;;8.70;95.20;;;;;;5069069;28;20220;-93
2021/11/14 09:54:13;;;;;;;22.88;16.35;;;8.80;95.20;;;;;;5594470;23;20236;-93
2021/11/14 09:59:24;;;;;;;18.27;15.32;;;8.70;95.70;;;;;;5024810;28;20250;-94
2021/11/14 10:24:36;;;;;;;12.10;8.43;;;8.30;96.20;;;;;;5045046;28;20206;-92
2021/11/14 10:29:52;;;;;;;10.02;7.43;;;8.20;96.80;;;;;;5030277;28;20205;-91
2021/11/14 10:35:03;;;;;;;12.03;7.53;;;8.00;97.00;;;;;;5043953;28;20198;-93
2021/11/14 10:37:43;;;;;;;9.87;7.73;;;8.00;96.80;;;;;;5054749;27;20308;-92
2021/11/14 10:40:29;;;;;;;10.57;7.47;;;8.00;97.20;;;;;;5040493;28;20550;-91
2021/11/14 10:42:59;;;;;;;12.48;7.95;;;8.10;97.00;;;;;;5053016;28;20226;-91
2021/11/14 10:45:46;;;;;;;10.73;8.30;;;8.00;96.70;;;;;;5063613;28;20213;-91
2021/11/14 10:51:01;;;;;;;13.93;10.40;;;8.20;96.80;;;;;;5038567;28;20212;-91
2021/11/14 10:53:30;;;;;;;13.57;10.32;;;8.10;97.00;;;;;;5056415;28;20316;-91
2021/11/14 10:55:59;;;;;;;12.75;10.00;;;7.80;97.10;;;;;;5057361;28;20716;-91
2021/11/14 10:58:28;;;;;;;15.00;10.35;;;7.80;97.20;;;;;;5066192;28;20217;-94
2021/11/14 11:00:59;;;;;;;14.07;10.18;;;7.90;97.00;;;;;;5057875;28;20689;-91
2021/11/14 11:03:40;;;;;;;13.63;10.80;;;7.80;96.70;;;;;;5056287;28;20253;-91
2021/11/14 11:06:30;;;;;;;16.48;11.13;;;7.70;97.30;;;;;;5039496;28;20205;-91
2021/11/14 11:09:33;;;;;;;18.27;13.03;;;7.60;97.30;;;;;;5054002;28;20202;-91
2021/11/14 11:12:03;;;;;;;19.50;13.30;;;7.70;97.70;;;;;;5052553;28;20280;-92
2021/11/14 11:14:31;;;;;;;18.73;13.90;;;7.70;97.70;;;;;;5054465;28;20232;-92
2021/11/14 11:17:00;;;;;;;20.65;13.35;;;7.70;97.80;;;;;;5052411;28;20194;-91
2021/11/14 11:22:09;;;;;;;16.67;11.70;;;7.80;97.10;;;;;;5037400;28;20225;-93
2021/11/14 11:24:47;;;;;;;16.95;12.80;;;7.80;96.90;;;;;;5044961;28;20202;-90
2021/11/14 11:27:25;;;;;;;16.40;11.77;;;7.80;96.90;;;;;;5055500;28;20225;-92
2021/11/14 11:29:54;;;;;;;17.15;12.00;;;7.90;96.70;;;;;;5044998;28;20202;-92
2021/11/14 11:32:24;;;;;;;18.83;13.43;;;7.90;96.70;;;;;;5042989;28;20815;-91
2021/11/14 11:34:52;;;;;;;17.02;12.25;;;7.80;97.00;;;;;;5049971;28;20202;-90
2021/11/14 11:37:37;;;;;;;16.75;12.10;;;7.80;96.90;;;;;;5049960;28;20309;-93
2021/11/14 11:40:05;;;;;;;20.77;13.98;;;7.80;96.90;;;;;;5049595;28;20201;-94
2021/11/14 11:42:53;;;;;;;17.58;11.73;;;7.80;96.50;;;;;;5044386;28;20222;-91
2021/11/14 11:45:27;;;;;;;16.17;11.93;;;7.80;96.20;;;;;;5050891;28;20216;-93
2021/11/14 11:47:57;;;;;;;17.58;12.38;;;7.70;96.50;;;;;;5048825;28;20225;-91
2021/11/14 11:58:56;;;;;;;18.40;12.80;;;7.80;96.00;;;;;;5030978;28;20236;-94
2021/11/14 12:04:55;;;;;;;18.23;13.10;;;7.90;95.70;;;;;;4995358;28;20690;-94
2021/11/14 12:16:29;;;;;;;19.27;14.02;;;7.80;95.70;;;;;;5041917;28;20241;-91
2021/11/14 12:18:58;;;;;;;20.05;14.25;;;7.80;95.70;;;;;;5019838;28;20217;-91
2021/11/14 12:24:58;;;;;;;21.73;15.30;;;7.50;96.70;;;;;;5048381;28;20714;-92
2021/11/14 12:27:27;;;;;;;18.88;14.50;;;7.60;96.10;;;;;;5041927;28;20199;-92
2021/11/14 12:29:59;;;;;;;21.13;14.93;;;7.70;95.70;;;;;;5044682;28;20296;-92
2021/11/14 12:32:41;;;;;;;19.50;14.63;;;7.70;95.90;;;;;;5044669;28;20238;-91
2021/11/14 12:35:13;;;;;;;23.50;15.40;;;7.70;95.70;;;;;;5036482;28;20203;-91
2021/11/14 12:38:09;;;;;;;23.90;15.77;;;7.50;96.60;;;;;;5044901;28;20770;-95
2021/11/14 12:40:44;;;;;;;22.70;15.65;;;7.60;96.40;;;;;;5036079;28;20285;-91
2021/11/14 12:43:16;;;;;;;23.63;16.25;;;7.60;96.10;;;;;;5054279;28;20267;-92
2021/11/14 12:45:55;;;;;;;26.13;17.43;;;7.60;96.20;;;;;;5053229;28;20200;-92
2021/11/14 12:48:25;;;;;;;27.43;18.30;;;7.50;96.80;;;;;;5034876;28;20229;-90
2021/11/14 12:51:43;;;;;;;26.92;18.52;;;7.50;97.00;;;;;;5055288;28;20248;-89
2021/11/14 12:54:25;;;;;;;28.93;18.90;;;7.50;97.50;;;;;;5029764;28;20606;-89
2021/11/14 12:56:54;;;;;;;26.17;18.97;;;7.40;97.10;;;;;;5051583;28;20602;-91
2021/11/14 12:59:49;;;;;;;25.25;17.40;;;7.50;97.40;;;;;;5041076;28;20214;-93
2021/11/14 13:05:08;;;;;;;23.35;16.55;;;7.60;96.90;;;;;;5040791;28;20574;-93
2021/11/14 13:10:32;;;;;;;25.50;18.30;;;7.60;96.70;;;;;;5032181;28;20218;-93
2021/11/14 13:15:57;;;;;;;25.40;17.60;;;7.60;97.10;;;;;;5043402;28;20661;-92
2021/11/14 13:21:24;;;;;;;28.60;20.33;;;7.60;97.30;;;;;;5043723;28;20197;-92
2021/11/14 13:35:02;;;;;;;23.93;17.23;;;7.70;97.50;;;;;;5043337;28;20281;-93
2021/11/14 13:37:34;;;;;;;23.58;17.13;;;7.60;97.20;;;;;;5038584;28;20230;-91
2021/11/14 13:40:08;;;;;;;25.48;16.90;;;7.60;97.50;;;;;;5039976;28;20226;-93
2021/11/14 13:42:37;;;;;;;20.60;15.60;;;7.70;97.30;;;;;;5039192;28;20240;-92
2021/11/14 13:47:55;;;;;;;20.73;14.75;;;7.80;96.80;;;;;;5047346;28;20225;-92
2021/11/14 13:58:52;;;;;;;19.67;15.52;;;7.80;96.40;;;;;;5045369;28;20222;-91
2021/11/14 14:02:02;;;;;;;19.23;14.63;;;7.80;96.40;;;;;;5053029;28;20233;-91
2021/11/14 14:04:53;;;;;;;19.33;14.05;;;7.90;95.90;;;;;;5039263;28;20668;-93
2021/11/14 14:07:20;;;;;;;22.20;15.15;;;8.00;95.90;;;;;;5054139;28;20658;-92
2021/11/14 14:15:31;;;;;;;18.88;14.10;;;7.80;96.30;;;;;;5023580;28;20218;-90
2021/11/14 14:18:00;;;;;;;18.95;13.70;;;7.90;96.10;;;;;;5050955;28;21880;-91
2021/11/14 14:20:29;;;;;;;18.95;14.40;;;7.90;96.20;;;;;;5050100;28;20233;-92
2021/11/14 14:22:58;;;;;;;17.15;13.65;;;7.90;97.00;;;;;;5061462;28;20272;-89
2021/11/14 14:25:28;;;;;;;18.92;13.57;;;8.10;95.70;;;;;;5060066;28;20198;-92
2021/11/14 14:27:59;;;;;;;19.15;13.43;;;8.10;96.40;;;;;;5056636;28;20228;-90
2021/11/14 14:33:26;;;;;;;15.48;12.25;;;8.10;95.70;;;;;;5062304;28;20240;-92
2021/11/14 14:38:58;;;;;;;15.68;11.82;;;8.20;95.70;;;;;;5039329;28;20219;-89
2021/11/14 14:44:09;;;;;;;19.10;13.02;;;7.90;96.20;;;;;;5060606;28;20214;-91
2021/11/14 14:46:37;;;;;;;18.23;12.50;;;7.90;96.10;;;;;;5052835;28;20273;-91
2021/11/14 14:49:13;;;;;;;17.35;12.73;;;7.90;96.50;;;;;;5054372;28;20282;-91
2021/11/14 14:55:08;;;;;;;15.35;11.82;;;7.90;96.40;;;;;;5010403;28;20202;-91
2021/11/14 14:57:35;;;;;;;26.25;19.85;;;8.10;95.70;;;;;;5049985;28;20224;-91
2021/11/14 15:00:02;;;;;;;31.15;21.90;;;7.90;97.40;;;;;;5050347;28;20326;-92
2021/11/14 15:02:29;;;;;;;26.25;18.83;;;8.10;97.10;;;;;;5045201;28;20276;-91
2021/11/14 15:04:59;;;;;;;15.85;12.48;;;8.10;96.80;;;;;;5050865;28;20674;-91
2021/11/14 15:07:29;;;;;;;17.50;12.93;;;8.20;95.70;;;;;;5046286;28;20226;-91
2021/11/14 15:09:59;;;;;;;16.17;13.18;;;8.10;95.70;;;;;;5047938;28;20206;-92
2021/11/14 15:12:51;;;;;;;16.15;12.15;;;8.00;95.70;;;;;;5042055;28;20283;-91
2021/11/14 15:18:12;;;;;;;17.58;12.45;;;8.00;95.70;;;;;;5053952;28;20210;-92
2021/11/14 15:20:58;;;;;;;17.73;12.52;;;7.80;95.70;;;;;;5053043;28;20725;-93
2021/11/14 15:23:27;;;;;;;15.13;11.98;;;7.90;95.70;;;;;;5052515;28;20232;-90
2021/11/14 15:25:55;;;;;;;20.52;15.63;;;7.90;95.70;;;;;;5059483;28;20293;-89
2021/11/14 15:28:25;;;;;;;17.52;12.27;;;7.90;95.70;;;;;;5051345;28;20612;-89
2021/11/14 15:33:52;;;;;;;18.20;13.25;;;7.90;96.00;;;;;;5046634;28;20236;-90
2021/11/14 15:36:48;;;;;;;21.15;15.57;;;8.00;95.80;;;;;;5052597;28;20288;-90
2021/11/14 15:39:39;;;;;;;17.15;13.13;;;7.90;95.90;;;;;;5052507;28;20284;-89
2021/11/14 15:42:07;;;;;;;20.05;13.52;;;7.90;95.70;;;;;;5058154;28;20212;-91
2021/11/14 15:51:54;;;;;;;17.25;12.43;;;7.80;96.40;;;;;;5042197;28;20193;-91
2021/11/14 15:57:17;;;;;;;17.73;12.88;;;7.90;95.80;;;;;;5045640;28;20239;-90
2021/11/14 15:59:54;;;;;;;18.42;13.38;;;7.80;96.20;;;;;;5050678;28;20228;-92
2021/11/14 16:02:22;;;;;;;19.80;14.38;;;7.80;96.10;;;;;;5039699;28;20248;-90
2021/11/14 16:04:51;;;;;;;18.38;13.30;;;7.80;96.30;;;;;;5049721;28;20202;-92
2021/11/14 16:07:52;;;;;;;;;;;;;;;;;;;;;
2021/11/14 16:10:23;;;;;;;18.35;14.00;;;7.70;96.40;;;;;;4947111;28;20623;-91
2021/11/14 16:13:16;;;;;;;18.35;13.60;;;7.80;96.20;;;;;;5042153;28;20225;-93
2021/11/14 16:15:57;;;;;;;19.55;13.88;;;7.70;96.30;;;;;;5044405;28;20194;-93
2021/11/14 16:18:25;;;;;;;18.98;13.43;;;7.80;96.40;;;;;;5036978;28;20247;-94
2021/11/14 16:20:56;;;;;;;19.02;13.90;;;7.70;96.50;;;;;;5050376;28;20249;-92
2021/11/14 16:23:24;;;;;;;18.98;13.93;;;7.70;96.40;;;;;;5056883;28;20229;-91
2021/11/14 16:26:47;;;;;;;19.23;13.65;;;7.70;96.70;;;;;;5053305;28;20300;-92
2021/11/14 16:29:14;;;;;;;20.40;14.27;;;7.70;96.50;;;;;;5043684;28;20240;-93
2021/11/14 16:32:03;;;;;;;18.45;14.57;;;7.70;96.40;;;;;;5049233;28;20202;-92
2021/11/14 16:35:04;;;;;;;20.88;14.43;;;7.60;96.70;;;;;;5043429;28;20588;-90
2021/11/14 16:37:31;;;;;;;18.65;14.65;;;7.60;96.50;;;;;;5059412;28;20235;-90
2021/11/14 16:39:59;;;;;;;17.50;13.60;;;7.70;96.70;;;;;;5078759;28;20215;-90
2021/11/14 16:42:27;;;;;;;19.85;14.40;;;7.70;96.30;;;;;;5049183;28;20577;-91
2021/11/14 16:45:15;;;;;;;21.40;15.57;;;7.70;96.20;;;;;;5044261;28;20210;-91
2021/11/14 16:47:43;;;;;;;21.77;15.25;;;7.70;96.30;;;;;;5044266;28;20794;-90
2021/11/14 16:50:12;;;;;;;20.00;15.57;;;7.70;96.40;;;;;;5041905;28;20566;-90
2021/11/14 16:52:39;;;;;;;24.48;17.15;;;7.70;96.30;;;;;;5042308;28;20994;-92
2021/11/14 16:55:09;;;;;;;23.25;16.58;;;7.70;96.60;;;;;;5050553;28;20225;-89
2021/11/14 16:57:41;;;;;;;22.92;17.02;;;7.70;96.40;;;;;;5049959;28;20232;-90
2021/11/14 17:00:10;;;;;;;21.27;16.58;;;7.60;96.40;;;;;;5049947;28;20229;-89
2021/11/14 17:02:37;;;;;;;22.88;16.50;;;7.60;96.40;;;;;;5045155;28;20221;-88
2021/11/14 17:05:09;;;;;;;24.63;17.00;;;7.60;96.50;;;;;;5050224;28;20208;-89
2021/11/14 17:07:37;;;;;;;24.03;16.70;;;7.60;96.60;;;;;;5056782;28;20228;-88
2021/11/14 17:10:06;;;;;;;21.95;16.60;;;7.60;96.50;;;;;;5046814;28;20210;-90
2021/11/14 17:12:39;;;;;;;24.15;16.23;;;7.60;96.60;;;;;;5044680;28;20279;-90
2021/11/14 17:15:07;;;;;;;25.35;16.77;;;7.60;96.70;;;;;;5047482;28;20205;-91
2021/11/14 17:17:34;;;;;;;24.35;17.30;;;7.60;96.90;;;;;;5043741;28;20225;-91
2021/11/14 17:20:05;;;;;;;23.20;16.70;;;7.40;97.40;;;;;;5047008;28;20226;-90
2021/11/14 17:22:32;;;;;;;20.92;15.98;;;7.40;97.30;;;;;;5049601;28;20222;-89
2021/11/14 17:25:01;;;;;;;22.13;16.50;;;7.50;97.10;;;;;;5052188;28;20259;-91
2021/11/14 17:27:28;;;;;;;24.48;17.15;;;7.50;97.00;;;;;;5053857;28;20242;-89
2021/11/14 17:29:56;;;;;;;22.60;16.45;;;7.50;97.10;;;;;;5054713;28;20208;-89